Terminal Aerodrome Forecast
Issued by NWS Shreveport, LA

Home | Current Version | Previous Version | Text Only | Print | Product List | Glossary On
Versions: 1 2 3 4 5 6 7 8 9 10 11 12 13 14
000
FTUS44 KSHV 240535
TAFTYR
TAF
KTYR 240535Z 2406/2506 34006KT P6SM FEW280
     FM240900 34007KT P6SM SCT120 SCT280
     FM241400 34013G17KT P6SM FEW120 SCT280
     FM241600 32017G25KT P6SM SKC
     FM241900 31022G30KT P6SM SKC
     FM250200 31006KT P6SM SKC=

USA.gov is the U.S. government's official web portal to all federal, state and local government web resources and services.